Sumisemaru No.5 — JE3162 — position and weather

sailwx.info

Track history (hours):
 
Tides and Currents Weather Stations Pressure Air Temp Water Temp Dewpoint Dewpoint Depression Visibility Wind Speed Wind Dir Waves Ship Positions

Sumisemaru No.5

Last reported at 2015-May-18 15:29 UTC. Time now 2015-May-25 01:28 UTC.
Position N 35°31' E 140°49'.

Length 96 m; draft 5 m.

Type: Cargo ship. MMSI: 431700423.

Date/timePositionNaut miles runAvg speedWind from/ knotsBaromVisibWave heightAir tempDewpointWater temp
2015-May-18 15:29N 35°31' E 140°49'4513.7
2015-May-18 12:13N 34°58' E 140°12'2310.8
2015-May-18 10:07N 34°55' E 139°45'1011.5
2015-May-18 09:15N 35°05' E 139°43'912.5
2015-May-18 08:33N 35°13' E 139°46'1211.8
2015-May-18 07:33N 35°24' E 139°42'5 4.6
2015-May-18 06:32N 35°29' E 139°40'0 0.0
2015-May-18 05:32N 35°29' E 139°40'0 0.0
2015-May-18 04:32N 35°29' E 139°40'0 0.0
2015-May-18 03:32N 35°29' E 139°40'0 0.0
2015-May-18 02:32N 35°29' E 139°40'0 0.0
2015-May-18 01:32N 35°29' E 139°40'0 0.0
2015-May-18 00:32N 35°29' E 139°40'0 0.0
2015-May-17 23:32N 35°29' E 139°40'0 0.0
2015-May-17 22:32N 35°29' E 139°40'0 0.0
2015-May-17 21:32N 35°29' E 139°40'0 0.0
2015-May-17 20:32N 35°29' E 139°40'0 0.0
2015-May-17 19:32N 35°29' E 139°40'0 0.0
2015-May-17 18:32N 35°29' E 139°40'0 0.0
2015-May-17 17:32N 35°29' E 139°40'0 0.0
2015-May-17 16:32N 35°29' E 139°40'0 0.0
2015-May-17 15:32N 35°29' E 139°40'0 0.0
2015-May-17 14:32N 35°29' E 139°40'0 0.0
2015-May-17 13:32N 35°29' E 139°40'0 0.0
2015-May-17 12:32N 35°29' E 139°40'0 0.0
2015-May-17 11:32N 35°29' E 139°40'0 0.0
2015-May-17 10:32N 35°29' E 139°40'0 0.0
2015-May-17 09:32N 35°29' E 139°40'0 0.0
2015-May-17 08:29N 35°29' E 139°40'0 0.0
2015-May-17 07:32N 35°29' E 139°40'0 0.0
2015-May-17 06:32N 35°29' E 139°40'0 0.0
2015-May-17 05:32N 35°29' E 139°40'0 0.0
2015-May-17 04:32N 35°29' E 139°40'0 0.0
2015-May-17 03:32N 35°29' E 139°40'0 0.0
2015-May-17 02:32N 35°29' E 139°40'0 0.0
2015-May-17 01:32N 35°29' E 139°40'0 0.0
2015-May-17 00:32N 35°29' E 139°40'0 0.0
2015-May-16 23:32N 35°29' E 139°40'2 2.2
2015-May-16 22:33N 35°27' E 139°41'1 0.9
2015-May-16 21:31N 35°26' E 139°42'0 0.0
2015-May-16 20:31N 35°26' E 139°42'0 0.0
2015-May-16 19:28N 35°26' E 139°42'0 0.1
2015-May-16 18:31N 35°26' E 139°42'0 0.1
2015-May-16 17:31N 35°26' E 139°42'0 0.0
2015-May-16 16:31N 35°26' E 139°42'0 0.0
2015-May-16 15:28N 35°26' E 139°42'0 0.0
2015-May-16 14:32N 35°26' E 139°42'0 0.0
2015-May-16 13:31N 35°26' E 139°42'0 0.0
2015-May-16 12:31N 35°26' E 139°42'0 0.0
2015-May-16 11:31N 35°26' E 139°42'0 0.0
2015-May-16 10:31N 35°26' E 139°42'0 0.0
2015-May-16 09:31N 35°26' E 139°42'0 0.0
2015-May-16 08:31N 35°26' E 139°42'0 0.0
2015-May-16 07:31N 35°26' E 139°42'0 0.0
2015-May-16 06:31N 35°26' E 139°42'0 0.0
2015-May-16 05:31N 35°26' E 139°42'0 0.0
2015-May-16 04:31N 35°26' E 139°42'0 0.0
2015-May-16 03:31N 35°26' E 139°42'1 0.7
2015-May-16 02:33N 35°26' E 139°41'0 0.0
2015-May-16 01:33N 35°26' E 139°41'0 0.0
2015-May-16 00:33N 35°26' E 139°41'0 0.0
2015-May-15 23:33N 35°26' E 139°41'0 0.0
2015-May-15 22:33N 35°26' E 139°41'7 7.2
2015-May-15 21:33N 35°19' E 139°44'1010.3
2015-May-15 20:33N 35°09' E 139°46'1211.9
2015-May-15 19:33N 34°57' E 139°43'12 9.0
2015-May-15 18:13N 34°47' E 139°50'1011.4
2015-May-15 17:19N 34°52' E 140°01'810.9
2015-May-15 16:33N 34°57' E 140°10'2510.3
2015-May-15 14:05N 35°11' E 140°35'8010.1
2015-May-15 06:08N 36°28' E 141°03'610.7
2015-May-15 05:33N 36°35' E 141°04'  
Track history (hours):
 
Tides and Currents Weather Stations Pressure Air Temp Water Temp Dewpoint Dewpoint Depression Visibility Wind Speed Wind Dir Waves Ship Positions

Sumisemaru No.5

Last reported at 2015-May-18 15:29 UTC. Time now 2015-May-25 01:28 UTC.
Position N 35°31' E 140°49'.

Length 96 m; draft 5 m.

Type: Cargo ship. MMSI: 431700423.

Date/timePositionNaut miles runAvg speedWind from/ knotsBaromVisibWave heightAir tempDewpointWater temp
2015-May-18 15:29N 35°31' E 140°49'4513.7
2015-May-18 12:13N 34°58' E 140°12'2310.8
2015-May-18 10:07N 34°55' E 139°45'1011.5
2015-May-18 09:15N 35°05' E 139°43'912.5
2015-May-18 08:33N 35°13' E 139°46'1211.8
2015-May-18 07:33N 35°24' E 139°42'5 4.6
2015-May-18 06:32N 35°29' E 139°40'0 0.0
2015-May-18 05:32N 35°29' E 139°40'0 0.0
2015-May-18 04:32N 35°29' E 139°40'0 0.0
2015-May-18 03:32N 35°29' E 139°40'0 0.0
2015-May-18 02:32N 35°29' E 139°40'0 0.0
2015-May-18 01:32N 35°29' E 139°40'0 0.0
2015-May-18 00:32N 35°29' E 139°40'0 0.0
2015-May-17 23:32N 35°29' E 139°40'0 0.0
2015-May-17 22:32N 35°29' E 139°40'0 0.0
2015-May-17 21:32N 35°29' E 139°40'0 0.0
2015-May-17 20:32N 35°29' E 139°40'0 0.0
2015-May-17 19:32N 35°29' E 139°40'0 0.0
2015-May-17 18:32N 35°29' E 139°40'0 0.0
2015-May-17 17:32N 35°29' E 139°40'0 0.0
2015-May-17 16:32N 35°29' E 139°40'0 0.0
2015-May-17 15:32N 35°29' E 139°40'0 0.0
2015-May-17 14:32N 35°29' E 139°40'0 0.0
2015-May-17 13:32N 35°29' E 139°40'0 0.0
2015-May-17 12:32N 35°29' E 139°40'0 0.0
2015-May-17 11:32N 35°29' E 139°40'0 0.0
2015-May-17 10:32N 35°29' E 139°40'0 0.0
2015-May-17 09:32N 35°29' E 139°40'0 0.0
2015-May-17 08:29N 35°29' E 139°40'0 0.0
2015-May-17 07:32N 35°29' E 139°40'0 0.0
2015-May-17 06:32N 35°29' E 139°40'0 0.0
2015-May-17 05:32N 35°29' E 139°40'0 0.0
2015-May-17 04:32N 35°29' E 139°40'0 0.0
2015-May-17 03:32N 35°29' E 139°40'0 0.0
2015-May-17 02:32N 35°29' E 139°40'0 0.0
2015-May-17 01:32N 35°29' E 139°40'0 0.0
2015-May-17 00:32N 35°29' E 139°40'0 0.0
2015-May-16 23:32N 35°29' E 139°40'2 2.2
2015-May-16 22:33N 35°27' E 139°41'1 0.9
2015-May-16 21:31N 35°26' E 139°42'0 0.0
2015-May-16 20:31N 35°26' E 139°42'0 0.0
2015-May-16 19:28N 35°26' E 139°42'0 0.1
2015-May-16 18:31N 35°26' E 139°42'0 0.1
2015-May-16 17:31N 35°26' E 139°42'0 0.0
2015-May-16 16:31N 35°26' E 139°42'0 0.0
2015-May-16 15:28N 35°26' E 139°42'0 0.0
2015-May-16 14:32N 35°26' E 139°42'0 0.0
2015-May-16 13:31N 35°26' E 139°42'0 0.0
2015-May-16 12:31N 35°26' E 139°42'0 0.0
2015-May-16 11:31N 35°26' E 139°42'0 0.0
2015-May-16 10:31N 35°26' E 139°42'0 0.0
2015-May-16 09:31N 35°26' E 139°42'0 0.0
2015-May-16 08:31N 35°26' E 139°42'0 0.0
2015-May-16 07:31N 35°26' E 139°42'0 0.0
2015-May-16 06:31N 35°26' E 139°42'0 0.0
2015-May-16 05:31N 35°26' E 139°42'0 0.0
2015-May-16 04:31N 35°26' E 139°42'0 0.0
2015-May-16 03:31N 35°26' E 139°42'1 0.7
2015-May-16 02:33N 35°26' E 139°41'0 0.0
2015-May-16 01:33N 35°26' E 139°41'0 0.0
2015-May-16 00:33N 35°26' E 139°41'0 0.0
2015-May-15 23:33N 35°26' E 139°41'0 0.0
2015-May-15 22:33N 35°26' E 139°41'7 7.2
2015-May-15 21:33N 35°19' E 139°44'1010.3
2015-May-15 20:33N 35°09' E 139°46'1211.9
2015-May-15 19:33N 34°57' E 139°43'12 9.0
2015-May-15 18:13N 34°47' E 139°50'1011.4
2015-May-15 17:19N 34°52' E 140°01'810.9
2015-May-15 16:33N 34°57' E 140°10'2510.3
2015-May-15 14:05N 35°11' E 140°35'8010.1
2015-May-15 06:08N 36°28' E 141°03'610.7
2015-May-15 05:33N 36°35' E 141°04'  

Dump ship's entire track history